sensor_id;sensor_type;location;lat;lon;timestamp;P1;durP1;ratioP1;P2;durP2;ratioP2
980;SDS011;479;53.514;9.994;2023-11-21T00:02:07;8.17;;;5.20;;
980;SDS011;479;53.514;9.994;2023-11-21T00:04:34;8.77;;;6.00;;
980;SDS011;479;53.514;9.994;2023-11-21T00:07:02;10.13;;;6.30;;
980;SDS011;479;53.514;9.994;2023-11-21T00:09:31;8.40;;;5.80;;
980;SDS011;479;53.514;9.994;2023-11-21T00:11:58;7.00;;;4.50;;
980;SDS011;479;53.514;9.994;2023-11-21T00:14:25;6.43;;;4.57;;
980;SDS011;479;53.514;9.994;2023-11-21T00:16:52;9.43;;;5.13;;
980;SDS011;479;53.514;9.994;2023-11-21T00:19:19;9.57;;;5.83;;
980;SDS011;479;53.514;9.994;2023-11-21T00:21:45;5.17;;;4.67;;
980;SDS011;479;53.514;9.994;2023-11-21T00:24:14;6.70;;;5.13;;
980;SDS011;479;53.514;9.994;2023-11-21T00:26:40;7.00;;;5.00;;
980;SDS011;479;53.514;9.994;2023-11-21T00:29:08;7.07;;;5.13;;
980;SDS011;479;53.514;9.994;2023-11-21T00:31:35;7.80;;;5.10;;
980;SDS011;479;53.514;9.994;2023-11-21T00:34:02;6.00;;;5.20;;
980;SDS011;479;53.514;9.994;2023-11-21T00:36:30;7.17;;;4.60;;
980;SDS011;479;53.514;9.994;2023-11-21T00:38:57;5.57;;;4.20;;
980;SDS011;479;53.514;9.994;2023-11-21T00:41:25;9.67;;;5.70;;
980;SDS011;479;53.514;9.994;2023-11-21T00:43:53;3.60;;;3.00;;
980;SDS011;479;53.514;9.994;2023-11-21T00:46:21;8.10;;;5.30;;
980;SDS011;479;53.514;9.994;2023-11-21T00:48:49;6.83;;;4.33;;
980;SDS011;479;53.514;9.994;2023-11-21T00:51:16;7.20;;;4.87;;
980;SDS011;479;53.514;9.994;2023-11-21T00:53:43;8.43;;;5.10;;
980;SDS011;479;53.514;9.994;2023-11-21T00:56:11;4.90;;;3.40;;
980;SDS011;479;53.514;9.994;2023-11-21T00:58:39;6.83;;;5.77;;
980;SDS011;479;53.514;9.994;2023-11-21T01:01:09;8.20;;;5.30;;
980;SDS011;479;53.514;9.994;2023-11-21T01:03:37;7.87;;;4.97;;
980;SDS011;479;53.514;9.994;2023-11-21T01:06:04;7.57;;;4.73;;
980;SDS011;479;53.514;9.994;2023-11-21T01:08:32;9.70;;;5.73;;
980;SDS011;479;53.514;9.994;2023-11-21T01:10:59;7.87;;;5.13;;
980;SDS011;479;53.514;9.994;2023-11-21T01:13:27;6.73;;;5.67;;
980;SDS011;479;53.514;9.994;2023-11-21T01:15:56;5.20;;;3.90;;
980;SDS011;479;53.514;9.994;2023-11-21T01:18:23;10.73;;;6.27;;
980;SDS011;479;53.514;9.994;2023-11-21T01:20:50;10.10;;;6.80;;
980;SDS011;479;53.514;9.994;2023-11-21T01:23:18;10.93;;;6.50;;
980;SDS011;479;53.514;9.994;2023-11-21T01:25:45;10.00;;;6.60;;
980;SDS011;479;53.514;9.994;2023-11-21T01:28:12;11.93;;;6.80;;
980;SDS011;479;53.514;9.994;2023-11-21T01:30:38;12.43;;;6.93;;
980;SDS011;479;53.514;9.994;2023-11-21T01:33:07;8.97;;;6.03;;
980;SDS011;479;53.514;9.994;2023-11-21T01:35:33;12.25;;;6.88;;
980;SDS011;479;53.514;9.994;2023-11-21T01:38:01;8.10;;;6.18;;
980;SDS011;479;53.514;9.994;2023-11-21T01:40:29;7.83;;;4.70;;
980;SDS011;479;53.514;9.994;2023-11-21T01:42:56;8.10;;;5.53;;
980;SDS011;479;53.514;9.994;2023-11-21T01:45:23;6.68;;;5.32;;
980;SDS011;479;53.514;9.994;2023-11-21T01:47:51;12.73;;;6.15;;
980;SDS011;479;53.514;9.994;2023-11-21T01:50:20;10.43;;;6.75;;
980;SDS011;479;53.514;9.994;2023-11-21T01:52:48;6.37;;;5.70;;
980;SDS011;479;53.514;9.994;2023-11-21T01:55:16;8.35;;;5.93;;
980;SDS011;479;53.514;9.994;2023-11-21T01:57:45;10.48;;;7.60;;
980;SDS011;479;53.514;9.994;2023-11-21T02:00:12;12.27;;;8.10;;
980;SDS011;479;53.514;9.994;2023-11-21T02:02:44;8.17;;;6.27;;
980;SDS011;479;53.514;9.994;2023-11-21T02:05:12;8.20;;;5.90;;
980;SDS011;479;53.514;9.994;2023-11-21T02:07:45;7.43;;;5.00;;
980;SDS011;479;53.514;9.994;2023-11-21T02:10:13;8.30;;;5.40;;
980;SDS011;479;53.514;9.994;2023-11-21T02:12:41;7.90;;;5.77;;
980;SDS011;479;53.514;9.994;2023-11-21T02:15:08;7.80;;;5.90;;
980;SDS011;479;53.514;9.994;2023-11-21T02:17:40;8.37;;;6.07;;
980;SDS011;479;53.514;9.994;2023-11-21T02:20:09;7.70;;;6.00;;
980;SDS011;479;53.514;9.994;2023-11-21T02:22:41;7.00;;;5.27;;
980;SDS011;479;53.514;9.994;2023-11-21T02:25:24;10.37;;;5.83;;
980;SDS011;479;53.514;9.994;2023-11-21T02:27:52;10.07;;;6.90;;
980;SDS011;479;53.514;9.994;2023-11-21T02:30:20;6.37;;;4.70;;
980;SDS011;479;53.514;9.994;2023-11-21T02:32:47;6.50;;;4.87;;
980;SDS011;479;53.514;9.994;2023-11-21T02:35:14;9.10;;;5.73;;
980;SDS011;479;53.514;9.994;2023-11-21T02:37:42;8.97;;;6.13;;
980;SDS011;479;53.514;9.994;2023-11-21T02:40:09;7.10;;;5.57;;
980;SDS011;479;53.514;9.994;2023-11-21T02:42:39;6.83;;;5.53;;
980;SDS011;479;53.514;9.994;2023-11-21T02:45:06;7.20;;;5.53;;
980;SDS011;479;53.514;9.994;2023-11-21T02:47:34;7.53;;;5.67;;
980;SDS011;479;53.514;9.994;2023-11-21T02:50:01;7.30;;;5.17;;
980;SDS011;479;53.514;9.994;2023-11-21T02:52:28;10.37;;;6.13;;
980;SDS011;479;53.514;9.994;2023-11-21T02:54:58;6.72;;;4.97;;
980;SDS011;479;53.514;9.994;2023-11-21T02:57:25;7.27;;;5.70;;
980;SDS011;479;53.514;9.994;2023-11-21T02:59:53;6.43;;;5.77;;
980;SDS011;479;53.514;9.994;2023-11-21T03:02:20;9.55;;;6.43;;
980;SDS011;479;53.514;9.994;2023-11-21T03:04:48;7.07;;;5.93;;
980;SDS011;479;53.514;9.994;2023-11-21T03:07:15;5.10;;;4.60;;
980;SDS011;479;53.514;9.994;2023-11-21T03:09:42;10.03;;;5.70;;
980;SDS011;479;53.514;9.994;2023-11-21T03:12:10;9.43;;;4.67;;
980;SDS011;479;53.514;9.994;2023-11-21T03:14:37;8.60;;;6.10;;
980;SDS011;479;53.514;9.994;2023-11-21T03:17:05;8.67;;;5.53;;
980;SDS011;479;53.514;9.994;2023-11-21T03:19:32;5.77;;;4.73;;
980;SDS011;479;53.514;9.994;2023-11-21T03:21:59;5.93;;;4.70;;
980;SDS011;479;53.514;9.994;2023-11-21T03:24:26;6.67;;;5.10;;
980;SDS011;479;53.514;9.994;2023-11-21T03:26:53;7.03;;;4.87;;
980;SDS011;479;53.514;9.994;2023-11-21T03:29:20;5.47;;;4.87;;
980;SDS011;479;53.514;9.994;2023-11-21T03:31:47;7.70;;;5.70;;
980;SDS011;479;53.514;9.994;2023-11-21T03:34:19;8.93;;;5.65;;
980;SDS011;479;53.514;9.994;2023-11-21T03:36:49;6.43;;;4.60;;
980;SDS011;479;53.514;9.994;2023-11-21T03:39:16;6.23;;;4.33;;
980;SDS011;479;53.514;9.994;2023-11-21T03:41:43;9.10;;;5.77;;
980;SDS011;479;53.514;9.994;2023-11-21T03:44:10;9.20;;;5.72;;
980;SDS011;479;53.514;9.994;2023-11-21T03:46:37;7.07;;;5.63;;
980;SDS011;479;53.514;9.994;2023-11-21T03:49:04;6.43;;;5.70;;
980;SDS011;479;53.514;9.994;2023-11-21T03:51:32;6.57;;;5.77;;
980;SDS011;479;53.514;9.994;2023-11-21T03:54:02;8.97;;;5.67;;
980;SDS011;479;53.514;9.994;2023-11-21T03:56:29;8.20;;;6.43;;
980;SDS011;479;53.514;9.994;2023-11-21T03:58:56;6.97;;;4.77;;
980;SDS011;479;53.514;9.994;2023-11-21T04:01:23;8.93;;;6.65;;
980;SDS011;479;53.514;9.994;2023-11-21T04:03:51;8.70;;;6.00;;
980;SDS011;479;53.514;9.994;2023-11-21T04:06:18;6.43;;;5.23;;
980;SDS011;479;53.514;9.994;2023-11-21T04:08:46;4.90;;;4.40;;
980;SDS011;479;53.514;9.994;2023-11-21T04:11:13;8.60;;;6.40;;
980;SDS011;479;53.514;9.994;2023-11-21T04:13:41;6.53;;;5.75;;
980;SDS011;479;53.514;9.994;2023-11-21T04:16:08;8.50;;;6.23;;
980;SDS011;479;53.514;9.994;2023-11-21T04:18:35;6.28;;;5.25;;
980;SDS011;479;53.514;9.994;2023-11-21T04:21:03;7.63;;;6.00;;
980;SDS011;479;53.514;9.994;2023-11-21T04:23:31;6.63;;;5.07;;
980;SDS011;479;53.514;9.994;2023-11-21T04:25:59;7.83;;;5.63;;
980;SDS011;479;53.514;9.994;2023-11-21T04:28:27;7.18;;;5.93;;
980;SDS011;479;53.514;9.994;2023-11-21T04:30:54;6.83;;;5.27;;
980;SDS011;479;53.514;9.994;2023-11-21T04:33:21;8.40;;;5.37;;
980;SDS011;479;53.514;9.994;2023-11-21T04:35:48;9.47;;;6.33;;
980;SDS011;479;53.514;9.994;2023-11-21T04:38:15;6.30;;;5.20;;
980;SDS011;479;53.514;9.994;2023-11-21T04:40:42;5.67;;;5.07;;
980;SDS011;479;53.514;9.994;2023-11-21T04:43:10;9.00;;;5.47;;
980;SDS011;479;53.514;9.994;2023-11-21T04:45:37;5.47;;;4.27;;
980;SDS011;479;53.514;9.994;2023-11-21T04:48:05;9.80;;;5.87;;
980;SDS011;479;53.514;9.994;2023-11-21T04:50:33;5.97;;;4.90;;
980;SDS011;479;53.514;9.994;2023-11-21T04:53:01;6.70;;;4.73;;
980;SDS011;479;53.514;9.994;2023-11-21T04:55:30;7.25;;;5.32;;
980;SDS011;479;53.514;9.994;2023-11-21T04:57:56;6.18;;;5.53;;
980;SDS011;479;53.514;9.994;2023-11-21T05:00:25;8.60;;;6.40;;
980;SDS011;479;53.514;9.994;2023-11-21T05:02:52;7.87;;;5.47;;
980;SDS011;479;53.514;9.994;2023-11-21T05:05:18;9.17;;;6.40;;
980;SDS011;479;53.514;9.994;2023-11-21T05:07:45;6.17;;;5.23;;
980;SDS011;479;53.514;9.994;2023-11-21T05:10:12;9.00;;;5.03;;
980;SDS011;479;53.514;9.994;2023-11-21T05:12:40;8.47;;;5.27;;
980;SDS011;479;53.514;9.994;2023-11-21T05:15:07;5.70;;;5.20;;
980;SDS011;479;53.514;9.994;2023-11-21T05:17:37;9.13;;;6.73;;
980;SDS011;479;53.514;9.994;2023-11-21T05:20:07;7.63;;;5.88;;
980;SDS011;479;53.514;9.994;2023-11-21T05:22:35;6.88;;;5.65;;
980;SDS011;479;53.514;9.994;2023-11-21T05:25:02;8.65;;;5.47;;
980;SDS011;479;53.514;9.994;2023-11-21T05:27:30;8.57;;;6.78;;
980;SDS011;479;53.514;9.994;2023-11-21T05:29:57;7.68;;;6.03;;
980;SDS011;479;53.514;9.994;2023-11-21T05:32:24;8.27;;;6.30;;
980;SDS011;479;53.514;9.994;2023-11-21T05:34:52;8.70;;;5.82;;
980;SDS011;479;53.514;9.994;2023-11-21T05:37:19;6.15;;;5.47;;
980;SDS011;479;53.514;9.994;2023-11-21T05:39:46;8.30;;;5.28;;
980;SDS011;479;53.514;9.994;2023-11-21T05:42:13;6.40;;;5.00;;
980;SDS011;479;53.514;9.994;2023-11-21T05:44:41;7.93;;;6.45;;
980;SDS011;479;53.514;9.994;2023-11-21T05:47:08;9.27;;;6.93;;
980;SDS011;479;53.514;9.994;2023-11-21T05:49:35;10.35;;;5.93;;
980;SDS011;479;53.514;9.994;2023-11-21T05:52:03;8.13;;;5.50;;
980;SDS011;479;53.514;9.994;2023-11-21T05:54:31;7.85;;;5.22;;
980;SDS011;479;53.514;9.994;2023-11-21T05:56:59;10.05;;;7.05;;
980;SDS011;479;53.514;9.994;2023-11-21T05:59:26;7.87;;;6.40;;
980;SDS011;479;53.514;9.994;2023-11-21T06:01:53;5.50;;;4.87;;
980;SDS011;479;53.514;9.994;2023-11-21T06:04:20;8.03;;;6.03;;
980;SDS011;479;53.514;9.994;2023-11-21T06:06:50;6.13;;;5.03;;
980;SDS011;479;53.514;9.994;2023-11-21T06:09:18;8.93;;;6.00;;
980;SDS011;479;53.514;9.994;2023-11-21T06:11:45;8.00;;;5.80;;
980;SDS011;479;53.514;9.994;2023-11-21T06:14:12;10.60;;;6.43;;
980;SDS011;479;53.514;9.994;2023-11-21T06:16:43;8.55;;;6.05;;
980;SDS011;479;53.514;9.994;2023-11-21T06:19:10;8.50;;;5.97;;
980;SDS011;479;53.514;9.994;2023-11-21T06:21:38;7.00;;;5.80;;
980;SDS011;479;53.514;9.994;2023-11-21T06:24:05;6.83;;;5.10;;
980;SDS011;479;53.514;9.994;2023-11-21T06:26:33;10.53;;;5.70;;
980;SDS011;479;53.514;9.994;2023-11-21T06:29:00;7.40;;;5.90;;
980;SDS011;479;53.514;9.994;2023-11-21T06:31:28;7.50;;;5.77;;
980;SDS011;479;53.514;9.994;2023-11-21T06:33:57;8.03;;;5.80;;
980;SDS011;479;53.514;9.994;2023-11-21T06:36:25;8.63;;;6.17;;
980;SDS011;479;53.514;9.994;2023-11-21T06:38:52;7.63;;;6.13;;
980;SDS011;479;53.514;9.994;2023-11-21T06:41:20;7.80;;;6.07;;
980;SDS011;479;53.514;9.994;2023-11-21T06:43:48;6.47;;;5.30;;
980;SDS011;479;53.514;9.994;2023-11-21T06:46:15;9.17;;;6.50;;
980;SDS011;479;53.514;9.994;2023-11-21T06:48:44;7.90;;;6.83;;
980;SDS011;479;53.514;9.994;2023-11-21T06:51:11;16.10;;;9.07;;
980;SDS011;479;53.514;9.994;2023-11-21T06:53:38;9.00;;;6.60;;
980;SDS011;479;53.514;9.994;2023-11-21T06:56:05;9.17;;;6.70;;
980;SDS011;479;53.514;9.994;2023-11-21T06:58:41;10.10;;;6.20;;
980;SDS011;479;53.514;9.994;2023-11-21T07:01:12;8.97;;;6.13;;
980;SDS011;479;53.514;9.994;2023-11-21T07:03:40;6.57;;;5.77;;
980;SDS011;479;53.514;9.994;2023-11-21T07:06:07;8.13;;;6.63;;
980;SDS011;479;53.514;9.994;2023-11-21T07:08:34;8.30;;;5.18;;
980;SDS011;479;53.514;9.994;2023-11-21T07:11:02;11.90;;;6.20;;
980;SDS011;479;53.514;9.994;2023-11-21T07:13:29;7.40;;;6.00;;
980;SDS011;479;53.514;9.994;2023-11-21T07:15:56;8.07;;;6.30;;
980;SDS011;479;53.514;9.994;2023-11-21T07:18:25;6.33;;;5.30;;
980;SDS011;479;53.514;9.994;2023-11-21T07:20:52;8.70;;;5.65;;
980;SDS011;479;53.514;9.994;2023-11-21T07:23:19;6.77;;;5.77;;
980;SDS011;479;53.514;9.994;2023-11-21T07:25:48;10.13;;;7.47;;
980;SDS011;479;53.514;9.994;2023-11-21T07:28:14;8.57;;;6.07;;
980;SDS011;479;53.514;9.994;2023-11-21T07:30:41;9.43;;;5.43;;
980;SDS011;479;53.514;9.994;2023-11-21T07:33:09;9.57;;;6.50;;
980;SDS011;479;53.514;9.994;2023-11-21T07:35:37;8.00;;;5.77;;
980;SDS011;479;53.514;9.994;2023-11-21T07:38:04;13.17;;;9.63;;
980;SDS011;479;53.514;9.994;2023-11-21T07:40:34;7.23;;;6.00;;
980;SDS011;479;53.514;9.994;2023-11-21T07:43:02;9.47;;;7.03;;
980;SDS011;479;53.514;9.994;2023-11-21T07:45:28;9.80;;;7.40;;
980;SDS011;479;53.514;9.994;2023-11-21T07:47:55;7.80;;;5.13;;
980;SDS011;479;53.514;9.994;2023-11-21T07:50:22;10.27;;;7.07;;
980;SDS011;479;53.514;9.994;2023-11-21T07:52:51;9.63;;;7.77;;
980;SDS011;479;53.514;9.994;2023-11-21T07:55:19;10.03;;;6.83;;
980;SDS011;479;53.514;9.994;2023-11-21T07:57:46;8.80;;;6.70;;
980;SDS011;479;53.514;9.994;2023-11-21T08:00:13;6.40;;;5.00;;
980;SDS011;479;53.514;9.994;2023-11-21T08:02:41;14.47;;;8.30;;
980;SDS011;479;53.514;9.994;2023-11-21T08:05:11;7.73;;;5.93;;
980;SDS011;479;53.514;9.994;2023-11-21T08:07:38;5.93;;;5.27;;
980;SDS011;479;53.514;9.994;2023-11-21T08:10:08;5.47;;;4.97;;
980;SDS011;479;53.514;9.994;2023-11-21T08:12:36;10.40;;;7.37;;
980;SDS011;479;53.514;9.994;2023-11-21T08:15:05;7.10;;;5.30;;
980;SDS011;479;53.514;9.994;2023-11-21T08:17:32;5.80;;;4.83;;
980;SDS011;479;53.514;9.994;2023-11-21T08:20:00;6.60;;;5.33;;
980;SDS011;479;53.514;9.994;2023-11-21T08:22:28;5.90;;;4.60;;
980;SDS011;479;53.514;9.994;2023-11-21T08:24:56;8.67;;;5.93;;
980;SDS011;479;53.514;9.994;2023-11-21T08:27:25;5.30;;;4.80;;
980;SDS011;479;53.514;9.994;2023-11-21T08:29:53;14.27;;;5.33;;
980;SDS011;479;53.514;9.994;2023-11-21T08:32:20;8.87;;;6.30;;
980;SDS011;479;53.514;9.994;2023-11-21T08:34:47;7.30;;;4.83;;
980;SDS011;479;53.514;9.994;2023-11-21T08:37:16;3.90;;;3.50;;
980;SDS011;479;53.514;9.994;2023-11-21T08:39:43;7.73;;;5.90;;
980;SDS011;479;53.514;9.994;2023-11-21T08:42:15;4.67;;;4.30;;
980;SDS011;479;53.514;9.994;2023-11-21T08:44:44;5.63;;;5.13;;
980;SDS011;479;53.514;9.994;2023-11-21T08:47:11;5.17;;;4.40;;
980;SDS011;479;53.514;9.994;2023-11-21T08:49:39;4.80;;;4.20;;
980;SDS011;479;53.514;9.994;2023-11-21T08:52:06;4.93;;;3.87;;
980;SDS011;479;53.514;9.994;2023-11-21T08:54:33;4.30;;;3.73;;
980;SDS011;479;53.514;9.994;2023-11-21T08:57:00;4.30;;;3.90;;
980;SDS011;479;53.514;9.994;2023-11-21T08:59:28;5.87;;;5.27;;
980;SDS011;479;53.514;9.994;2023-11-21T09:01:56;5.07;;;4.53;;
980;SDS011;479;53.514;9.994;2023-11-21T09:04:23;4.60;;;3.83;;
980;SDS011;479;53.514;9.994;2023-11-21T09:06:49;5.80;;;4.13;;
980;SDS011;479;53.514;9.994;2023-11-21T09:09:16;4.10;;;3.70;;
980;SDS011;479;53.514;9.994;2023-11-21T09:11:44;8.93;;;5.33;;
980;SDS011;479;53.514;9.994;2023-11-21T09:14:14;5.63;;;4.30;;
980;SDS011;479;53.514;9.994;2023-11-21T09:16:43;7.23;;;4.30;;
980;SDS011;479;53.514;9.994;2023-11-21T09:19:12;6.57;;;4.50;;
980;SDS011;479;53.514;9.994;2023-11-21T09:21:41;3.87;;;3.47;;
980;SDS011;479;53.514;9.994;2023-11-21T09:24:09;5.80;;;4.23;;
980;SDS011;479;53.514;9.994;2023-11-21T09:26:36;3.80;;;3.50;;
980;SDS011;479;53.514;9.994;2023-11-21T09:29:03;4.23;;;3.83;;
980;SDS011;479;53.514;9.994;2023-11-21T09:31:30;6.73;;;3.47;;
980;SDS011;479;53.514;9.994;2023-11-21T09:33:59;4.00;;;3.53;;
980;SDS011;479;53.514;9.994;2023-11-21T09:36:29;2.40;;;2.20;;
980;SDS011;479;53.514;9.994;2023-11-21T09:38:58;5.57;;;3.10;;
980;SDS011;479;53.514;9.994;2023-11-21T09:41:29;3.67;;;3.33;;
980;SDS011;479;53.514;9.994;2023-11-21T09:44:06;4.67;;;4.13;;
980;SDS011;479;53.514;9.994;2023-11-21T09:46:38;2.90;;;2.47;;
980;SDS011;479;53.514;9.994;2023-11-21T09:49:08;3.20;;;2.90;;
980;SDS011;479;53.514;9.994;2023-11-21T09:51:39;4.30;;;2.63;;
980;SDS011;479;53.514;9.994;2023-11-21T09:54:09;3.40;;;2.80;;
980;SDS011;479;53.514;9.994;2023-11-21T09:56:37;3.37;;;3.07;;
980;SDS011;479;53.514;9.994;2023-11-21T09:59:04;5.00;;;3.63;;
980;SDS011;479;53.514;9.994;2023-11-21T10:01:36;5.07;;;3.20;;
980;SDS011;479;53.514;9.994;2023-11-21T10:04:04;3.10;;;2.80;;
980;SDS011;479;53.514;9.994;2023-11-21T10:06:37;2.90;;;2.60;;
980;SDS011;479;53.514;9.994;2023-11-21T10:09:07;3.70;;;3.13;;
980;SDS011;479;53.514;9.994;2023-11-21T10:11:38;5.13;;;3.17;;
980;SDS011;479;53.514;9.994;2023-11-21T10:14:07;4.10;;;3.60;;
980;SDS011;479;53.514;9.994;2023-11-21T10:16:38;5.10;;;3.40;;
980;SDS011;479;53.514;9.994;2023-11-21T10:19:06;4.53;;;3.53;;
980;SDS011;479;53.514;9.994;2023-11-21T10:21:40;3.13;;;2.90;;
980;SDS011;479;53.514;9.994;2023-11-21T10:24:07;4.83;;;3.77;;
980;SDS011;479;53.514;9.994;2023-11-21T10:26:34;5.67;;;3.23;;
980;SDS011;479;53.514;9.994;2023-11-21T10:29:02;3.37;;;2.47;;
980;SDS011;479;53.514;9.994;2023-11-21T10:31:29;2.40;;;2.30;;
980;SDS011;479;53.514;9.994;2023-11-21T10:33:57;4.20;;;3.80;;
980;SDS011;479;53.514;9.994;2023-11-21T10:36:41;3.57;;;3.27;;
980;SDS011;479;53.514;9.994;2023-11-21T10:39:08;5.03;;;3.43;;
980;SDS011;479;53.514;9.994;2023-11-21T10:41:36;3.60;;;3.23;;
980;SDS011;479;53.514;9.994;2023-11-21T10:44:05;3.40;;;2.87;;
980;SDS011;479;53.514;9.994;2023-11-21T10:46:34;4.37;;;3.50;;
980;SDS011;479;53.514;9.994;2023-11-21T10:49:01;2.63;;;2.40;;
980;SDS011;479;53.514;9.994;2023-11-21T10:51:29;3.37;;;2.53;;
980;SDS011;479;53.514;9.994;2023-11-21T10:53:58;4.10;;;3.70;;
980;SDS011;479;53.514;9.994;2023-11-21T10:56:25;4.50;;;3.27;;
980;SDS011;479;53.514;9.994;2023-11-21T10:58:55;3.50;;;3.00;;
980;SDS011;479;53.514;9.994;2023-11-21T11:01:23;2.90;;;2.70;;
980;SDS011;479;53.514;9.994;2023-11-21T11:03:54;3.47;;;3.17;;
980;SDS011;479;53.514;9.994;2023-11-21T11:06:22;5.53;;;3.30;;
980;SDS011;479;53.514;9.994;2023-11-21T11:08:52;2.47;;;2.37;;
980;SDS011;479;53.514;9.994;2023-11-21T11:11:21;3.23;;;2.93;;
980;SDS011;479;53.514;9.994;2023-11-21T11:13:48;2.50;;;2.30;;
980;SDS011;479;53.514;9.994;2023-11-21T11:16:15;3.43;;;2.53;;
980;SDS011;479;53.514;9.994;2023-11-21T11:18:43;3.00;;;2.80;;
980;SDS011;479;53.514;9.994;2023-11-21T11:21:15;2.97;;;2.77;;
980;SDS011;479;53.514;9.994;2023-11-21T11:23:55;2.70;;;2.50;;
980;SDS011;479;53.514;9.994;2023-11-21T11:26:37;2.37;;;2.27;;
980;SDS011;479;53.514;9.994;2023-11-21T11:29:11;3.77;;;3.37;;
980;SDS011;479;53.514;9.994;2023-11-21T11:31:51;3.30;;;2.97;;
980;SDS011;479;53.514;9.994;2023-11-21T11:34:30;3.03;;;2.67;;
980;SDS011;479;53.514;9.994;2023-11-21T11:37:00;2.93;;;2.70;;
980;SDS011;479;53.514;9.994;2023-11-21T11:39:29;4.07;;;3.20;;
980;SDS011;479;53.514;9.994;2023-11-21T11:41:59;3.90;;;2.60;;
980;SDS011;479;53.514;9.994;2023-11-21T11:44:48;2.63;;;2.43;;
980;SDS011;479;53.514;9.994;2023-11-21T11:47:21;3.30;;;3.00;;
980;SDS011;479;53.514;9.994;2023-11-21T11:50:00;3.20;;;2.90;;
980;SDS011;479;53.514;9.994;2023-11-21T11:52:34;3.17;;;2.00;;
980;SDS011;479;53.514;9.994;2023-11-21T11:55:02;2.40;;;2.10;;
980;SDS011;479;53.514;9.994;2023-11-21T11:57:31;4.27;;;3.10;;
980;SDS011;479;53.514;9.994;2023-11-21T12:00:07;2.60;;;2.40;;
980;SDS011;479;53.514;9.994;2023-11-21T12:02:41;2.20;;;2.00;;
980;SDS011;479;53.514;9.994;2023-11-21T12:05:11;3.43;;;2.90;;
980;SDS011;479;53.514;9.994;2023-11-21T12:07:48;4.13;;;3.77;;
980;SDS011;479;53.514;9.994;2023-11-21T12:10:19;3.70;;;3.40;;
980;SDS011;479;53.514;9.994;2023-11-21T12:12:48;3.30;;;3.00;;
980;SDS011;479;53.514;9.994;2023-11-21T12:15:17;3.37;;;3.07;;
980;SDS011;479;53.514;9.994;2023-11-21T12:17:45;3.40;;;3.10;;
980;SDS011;479;53.514;9.994;2023-11-21T12:20:12;3.60;;;3.30;;
980;SDS011;479;53.514;9.994;2023-11-21T12:22:43;5.77;;;4.30;;
980;SDS011;479;53.514;9.994;2023-11-21T12:25:13;3.70;;;3.33;;
980;SDS011;479;53.514;9.994;2023-11-21T12:27:44;2.77;;;2.60;;
980;SDS011;479;53.514;9.994;2023-11-21T12:30:13;15.23;;;6.87;;
980;SDS011;479;53.514;9.994;2023-11-21T12:32:41;3.30;;;2.53;;
980;SDS011;479;53.514;9.994;2023-11-21T12:35:08;4.00;;;3.10;;
980;SDS011;479;53.514;9.994;2023-11-21T12:37:35;4.70;;;2.60;;
980;SDS011;479;53.514;9.994;2023-11-21T12:40:03;1.40;;;1.30;;
980;SDS011;479;53.514;9.994;2023-11-21T12:42:32;1.87;;;1.73;;
980;SDS011;479;53.514;9.994;2023-11-21T12:45:09;2.60;;;2.40;;
980;SDS011;479;53.514;9.994;2023-11-21T12:47:47;3.30;;;2.47;;
980;SDS011;479;53.514;9.994;2023-11-21T12:50:15;2.47;;;2.27;;
980;SDS011;479;53.514;9.994;2023-11-21T12:52:48;5.50;;;3.42;;
980;SDS011;479;53.514;9.994;2023-11-21T12:55:17;3.00;;;2.80;;
980;SDS011;479;53.514;9.994;2023-11-21T12:57:44;3.10;;;2.50;;
980;SDS011;479;53.514;9.994;2023-11-21T13:00:12;3.20;;;2.97;;
980;SDS011;479;53.514;9.994;2023-11-21T13:02:53;4.63;;;2.50;;
980;SDS011;479;53.514;9.994;2023-11-21T13:05:26;2.30;;;1.90;;
980;SDS011;479;53.514;9.994;2023-11-21T13:07:54;3.07;;;2.77;;
980;SDS011;479;53.514;9.994;2023-11-21T13:10:23;2.80;;;2.60;;
980;SDS011;479;53.514;9.994;2023-11-21T13:12:55;2.43;;;2.30;;
980;SDS011;479;53.514;9.994;2023-11-21T13:15:25;2.27;;;2.10;;
980;SDS011;479;53.514;9.994;2023-11-21T13:17:54;3.25;;;2.60;;
980;SDS011;479;53.514;9.994;2023-11-21T13:20:23;2.27;;;2.07;;
980;SDS011;479;53.514;9.994;2023-11-21T13:22:51;2.20;;;2.10;;
980;SDS011;479;53.514;9.994;2023-11-21T13:25:20;3.30;;;3.00;;
980;SDS011;479;53.514;9.994;2023-11-21T13:27:47;3.23;;;2.93;;
980;SDS011;479;53.514;9.994;2023-11-21T13:30:15;3.50;;;3.00;;
980;SDS011;479;53.514;9.994;2023-11-21T13:32:43;3.80;;;3.23;;
980;SDS011;479;53.514;9.994;2023-11-21T13:35:13;3.90;;;3.00;;
980;SDS011;479;53.514;9.994;2023-11-21T13:37:49;3.13;;;2.60;;
980;SDS011;479;53.514;9.994;2023-11-21T13:40:21;3.00;;;2.77;;
980;SDS011;479;53.514;9.994;2023-11-21T13:42:51;7.77;;;2.70;;
980;SDS011;479;53.514;9.994;2023-11-21T13:45:23;2.60;;;2.50;;
980;SDS011;479;53.514;9.994;2023-11-21T13:47:51;3.20;;;2.23;;
980;SDS011;479;53.514;9.994;2023-11-21T13:50:23;2.73;;;2.53;;
980;SDS011;479;53.514;9.994;2023-11-21T13:52:55;7.10;;;2.53;;
980;SDS011;479;53.514;9.994;2023-11-21T13:55:23;3.53;;;3.23;;
980;SDS011;479;53.514;9.994;2023-11-21T13:57:50;3.97;;;2.83;;
980;SDS011;479;53.514;9.994;2023-11-21T14:00:18;3.83;;;3.07;;
980;SDS011;479;53.514;9.994;2023-11-21T14:03:07;4.38;;;2.33;;
980;SDS011;479;53.514;9.994;2023-11-21T14:05:44;3.60;;;3.30;;
980;SDS011;479;53.514;9.994;2023-11-21T14:08:12;6.93;;;2.33;;
980;SDS011;479;53.514;9.994;2023-11-21T14:10:42;3.50;;;2.70;;
980;SDS011;479;53.514;9.994;2023-11-21T14:13:10;2.50;;;2.30;;
980;SDS011;479;53.514;9.994;2023-11-21T14:15:38;2.10;;;2.00;;
980;SDS011;479;53.514;9.994;2023-11-21T14:18:07;2.47;;;1.90;;
980;SDS011;479;53.514;9.994;2023-11-21T14:20:35;2.80;;;2.23;;
980;SDS011;479;53.514;9.994;2023-11-21T14:23:04;3.37;;;2.90;;
980;SDS011;479;53.514;9.994;2023-11-21T14:25:31;2.20;;;2.00;;
980;SDS011;479;53.514;9.994;2023-11-21T14:27:59;2.60;;;2.40;;
980;SDS011;479;53.514;9.994;2023-11-21T14:30:28;1.90;;;1.80;;
980;SDS011;479;53.514;9.994;2023-11-21T14:32:57;1.73;;;1.63;;
980;SDS011;479;53.514;9.994;2023-11-21T14:35:24;3.47;;;1.90;;
980;SDS011;479;53.514;9.994;2023-11-21T14:37:51;4.20;;;2.25;;
980;SDS011;479;53.514;9.994;2023-11-21T14:40:20;3.08;;;2.78;;
980;SDS011;479;53.514;9.994;2023-11-21T14:42:49;2.67;;;2.20;;
980;SDS011;479;53.514;9.994;2023-11-21T14:45:18;2.33;;;1.90;;
980;SDS011;479;53.514;9.994;2023-11-21T14:47:45;2.83;;;2.58;;
980;SDS011;479;53.514;9.994;2023-11-21T14:50:22;2.25;;;2.08;;
980;SDS011;479;53.514;9.994;2023-11-21T14:53:12;5.10;;;1.88;;
980;SDS011;479;53.514;9.994;2023-11-21T14:55:40;1.45;;;1.17;;
980;SDS011;479;53.514;9.994;2023-11-21T14:58:20;2.13;;;2.03;;
980;SDS011;479;53.514;9.994;2023-11-21T15:00:52;2.70;;;2.50;;
980;SDS011;479;53.514;9.994;2023-11-21T15:03:23;1.65;;;1.55;;
980;SDS011;479;53.514;9.994;2023-11-21T15:06:09;2.30;;;2.10;;
980;SDS011;479;53.514;9.994;2023-11-21T15:08:48;4.82;;;1.77;;
980;SDS011;479;53.514;9.994;2023-11-21T15:11:24;3.10;;;2.75;;
980;SDS011;479;53.514;9.994;2023-11-21T15:13:56;2.13;;;1.92;;
980;SDS011;479;53.514;9.994;2023-11-21T15:16:23;2.38;;;2.17;;
980;SDS011;479;53.514;9.994;2023-11-21T15:18:51;2.50;;;2.30;;
980;SDS011;479;53.514;9.994;2023-11-21T15:21:19;3.05;;;2.85;;
980;SDS011;479;53.514;9.994;2023-11-21T15:23:47;2.67;;;2.30;;
980;SDS011;479;53.514;9.994;2023-11-21T15:26:17;1.25;;;1.15;;
980;SDS011;479;53.514;9.994;2023-11-21T15:28:45;4.90;;;3.90;;
980;SDS011;479;53.514;9.994;2023-11-21T15:31:12;1.20;;;1.10;;
980;SDS011;479;53.514;9.994;2023-11-21T15:33:41;1.40;;;1.40;;
980;SDS011;479;53.514;9.994;2023-11-21T15:36:08;2.45;;;2.25;;
980;SDS011;479;53.514;9.994;2023-11-21T15:38:36;1.38;;;1.27;;
980;SDS011;479;53.514;9.994;2023-11-21T15:41:04;2.10;;;2.00;;
980;SDS011;479;53.514;9.994;2023-11-21T15:43:33;2.47;;;2.30;;
980;SDS011;479;53.514;9.994;2023-11-21T15:46:02;2.40;;;2.20;;
980;SDS011;479;53.514;9.994;2023-11-21T15:48:33;3.55;;;2.63;;
980;SDS011;479;53.514;9.994;2023-11-21T15:51:01;4.00;;;2.00;;
980;SDS011;479;53.514;9.994;2023-11-21T15:53:30;1.95;;;1.63;;
980;SDS011;479;53.514;9.994;2023-11-21T15:55:57;2.40;;;2.20;;